sensor_id;sensor_type;location;lat;lon;timestamp;temperature;humidity
17284;DHT22;8760;52.248;20.952;2024-01-10T00:00:45;-7.10;1.00
17284;DHT22;8760;52.248;20.952;2024-01-10T00:03:12;-7.10;1.00
17284;DHT22;8760;52.248;20.952;2024-01-10T00:05:40;-7.20;1.00
17284;DHT22;8760;52.248;20.952;2024-01-10T00:08:07;-7.10;1.00
17284;DHT22;8760;52.248;20.952;2024-01-10T00:10:34;-7.10;1.00
17284;DHT22;8760;52.248;20.952;2024-01-10T00:13:01;-7.10;1.00
17284;DHT22;8760;52.248;20.952;2024-01-10T00:15:28;-7.20;1.00
17284;DHT22;8760;52.248;20.952;2024-01-10T00:17:54;-7.20;1.00
17284;DHT22;8760;52.248;20.952;2024-01-10T00:20:21;-7.20;1.00
17284;DHT22;8760;52.248;20.952;2024-01-10T00:22:49;-7.20;1.00
17284;DHT22;8760;52.248;20.952;2024-01-10T00:25:16;-7.20;1.00
17284;DHT22;8760;52.248;20.952;2024-01-10T00:27:43;-7.30;6.30
17284;DHT22;8760;52.248;20.952;2024-01-10T00:30:10;-7.30;1.00
17284;DHT22;8760;52.248;20.952;2024-01-10T00:32:37;-7.30;1.00
17284;DHT22;8760;52.248;20.952;2024-01-10T00:35:04;-7.30;1.00
17284;DHT22;8760;52.248;20.952;2024-01-10T00:37:31;-7.30;1.00
17284;DHT22;8760;52.248;20.952;2024-01-10T00:39:59;-7.20;1.00
17284;DHT22;8760;52.248;20.952;2024-01-10T00:42:26;-7.30;1.00
17284;DHT22;8760;52.248;20.952;2024-01-10T00:44:53;-7.30;1.00
17284;DHT22;8760;52.248;20.952;2024-01-10T00:47:19;-7.20;1.00
17284;DHT22;8760;52.248;20.952;2024-01-10T00:49:46;-7.20;1.00
17284;DHT22;8760;52.248;20.952;2024-01-10T00:52:13;-7.20;1.00
17284;DHT22;8760;52.248;20.952;2024-01-10T00:54:40;-7.20;1.00
17284;DHT22;8760;52.248;20.952;2024-01-10T00:57:08;-7.10;1.00
17284;DHT22;8760;52.248;20.952;2024-01-10T00:59:35;-7.10;1.00
17284;DHT22;8760;52.248;20.952;2024-01-10T01:02:02;-7.10;1.00
17284;DHT22;8760;52.248;20.952;2024-01-10T01:04:30;-7.10;1.00
17284;DHT22;8760;52.248;20.952;2024-01-10T01:06:56;-7.10;1.00
17284;DHT22;8760;52.248;20.952;2024-01-10T01:09:23;-7.20;1.00
17284;DHT22;8760;52.248;20.952;2024-01-10T01:11:50;-7.20;1.00
17284;DHT22;8760;52.248;20.952;2024-01-10T01:14:19;-7.20;1.00
17284;DHT22;8760;52.248;20.952;2024-01-10T01:16:45;-7.30;1.00
17284;DHT22;8760;52.248;20.952;2024-01-10T01:19:12;-7.30;1.00
17284;DHT22;8760;52.248;20.952;2024-01-10T01:21:39;-7.40;1.00
17284;DHT22;8760;52.248;20.952;2024-01-10T01:24:06;-7.30;1.00
17284;DHT22;8760;52.248;20.952;2024-01-10T01:26:32;-7.40;1.00
17284;DHT22;8760;52.248;20.952;2024-01-10T01:28:59;-7.40;1.80
17284;DHT22;8760;52.248;20.952;2024-01-10T01:31:27;-7.40;24.00
17284;DHT22;8760;52.248;20.952;2024-01-10T01:33:54;-7.40;28.30
17284;DHT22;8760;52.248;20.952;2024-01-10T01:36:21;-7.40;38.10
17284;DHT22;8760;52.248;20.952;2024-01-10T01:38:48;-7.40;21.30
17284;DHT22;8760;52.248;20.952;2024-01-10T01:41:15;-7.30;30.80
17284;DHT22;8760;52.248;20.952;2024-01-10T01:43:43;-7.30;18.70
17284;DHT22;8760;52.248;20.952;2024-01-10T01:46:13;-7.30;1.00
17284;DHT22;8760;52.248;20.952;2024-01-10T01:48:42;-7.30;1.00
17284;DHT22;8760;52.248;20.952;2024-01-10T01:51:09;-7.40;1.00
17284;DHT22;8760;52.248;20.952;2024-01-10T01:53:37;-7.30;40.60
17284;DHT22;8760;52.248;20.952;2024-01-10T01:56:07;-7.30;11.50
17284;DHT22;8760;52.248;20.952;2024-01-10T01:58:35;-7.30;1.00
17284;DHT22;8760;52.248;20.952;2024-01-10T02:01:03;-7.30;1.00
17284;DHT22;8760;52.248;20.952;2024-01-10T02:03:31;-7.30;1.00
17284;DHT22;8760;52.248;20.952;2024-01-10T02:05:59;-7.30;1.00
17284;DHT22;8760;52.248;20.952;2024-01-10T02:08:28;-7.30;1.00
17284;DHT22;8760;52.248;20.952;2024-01-10T02:10:56;-7.30;1.00
17284;DHT22;8760;52.248;20.952;2024-01-10T02:13:22;-7.40;1.00
17284;DHT22;8760;52.248;20.952;2024-01-10T02:15:50;-7.30;1.00
17284;DHT22;8760;52.248;20.952;2024-01-10T02:18:16;-7.40;1.00
17284;DHT22;8760;52.248;20.952;2024-01-10T02:20:44;-7.40;89.80
17284;DHT22;8760;52.248;20.952;2024-01-10T02:23:12;-7.40;1.00
17284;DHT22;8760;52.248;20.952;2024-01-10T02:25:41;-7.40;1.00
17284;DHT22;8760;52.248;20.952;2024-01-10T02:28:07;-7.40;99.90
17284;DHT22;8760;52.248;20.952;2024-01-10T02:30:34;-7.40;99.90
17284;DHT22;8760;52.248;20.952;2024-01-10T02:33:02;-7.40;99.90
17284;DHT22;8760;52.248;20.952;2024-01-10T02:35:29;-7.40;99.90
17284;DHT22;8760;52.248;20.952;2024-01-10T02:37:58;-7.40;99.90
17284;DHT22;8760;52.248;20.952;2024-01-10T02:40:25;-7.40;1.00
17284;DHT22;8760;52.248;20.952;2024-01-10T02:42:54;-7.50;99.90
17284;DHT22;8760;52.248;20.952;2024-01-10T02:45:20;-7.50;99.90
17284;DHT22;8760;52.248;20.952;2024-01-10T02:47:47;-7.50;99.90
17284;DHT22;8760;52.248;20.952;2024-01-10T02:50:14;-7.50;9.70
17284;DHT22;8760;52.248;20.952;2024-01-10T02:52:42;-7.50;26.60
17284;DHT22;8760;52.248;20.952;2024-01-10T02:55:09;-7.50;99.90
17284;DHT22;8760;52.248;20.952;2024-01-10T02:57:35;-7.50;99.90
17284;DHT22;8760;52.248;20.952;2024-01-10T03:00:05;-7.50;99.90
17284;DHT22;8760;52.248;20.952;2024-01-10T03:02:33;-7.60;99.90
17284;DHT22;8760;52.248;20.952;2024-01-10T03:05:00;-7.50;99.90
17284;DHT22;8760;52.248;20.952;2024-01-10T03:07:27;-7.60;40.70
17284;DHT22;8760;52.248;20.952;2024-01-10T03:09:53;-7.60;91.20
17284;DHT22;8760;52.248;20.952;2024-01-10T03:12:20;-7.50;99.90
17284;DHT22;8760;52.248;20.952;2024-01-10T03:14:47;-7.60;99.90
17284;DHT22;8760;52.248;20.952;2024-01-10T03:17:15;-7.60;90.70
17284;DHT22;8760;52.248;20.952;2024-01-10T03:19:42;-7.60;99.90
17284;DHT22;8760;52.248;20.952;2024-01-10T03:22:09;-7.60;99.90
17284;DHT22;8760;52.248;20.952;2024-01-10T03:24:36;-7.50;99.90
17284;DHT22;8760;52.248;20.952;2024-01-10T03:27:04;-7.60;99.90
17284;DHT22;8760;52.248;20.952;2024-01-10T03:29:31;-7.60;99.90
17284;DHT22;8760;52.248;20.952;2024-01-10T03:31:57;-7.60;99.90
17284;DHT22;8760;52.248;20.952;2024-01-10T03:34:25;-7.60;99.90
17284;DHT22;8760;52.248;20.952;2024-01-10T03:36:52;-7.60;99.90
17284;DHT22;8760;52.248;20.952;2024-01-10T03:39:19;-7.70;99.90
17284;DHT22;8760;52.248;20.952;2024-01-10T03:41:47;-7.70;99.90
17284;DHT22;8760;52.248;20.952;2024-01-10T03:44:13;-7.70;99.90
17284;DHT22;8760;52.248;20.952;2024-01-10T03:46:40;-7.70;99.90
17284;DHT22;8760;52.248;20.952;2024-01-10T03:49:07;-7.70;99.90
17284;DHT22;8760;52.248;20.952;2024-01-10T03:51:35;-7.60;99.90
17284;DHT22;8760;52.248;20.952;2024-01-10T03:54:03;-7.60;99.90
17284;DHT22;8760;52.248;20.952;2024-01-10T03:56:30;-7.60;99.90
17284;DHT22;8760;52.248;20.952;2024-01-10T03:58:56;-7.70;99.90
17284;DHT22;8760;52.248;20.952;2024-01-10T04:01:24;-7.70;99.90
17284;DHT22;8760;52.248;20.952;2024-01-10T04:03:51;-7.80;99.90
17284;DHT22;8760;52.248;20.952;2024-01-10T04:06:18;-7.80;99.90
17284;DHT22;8760;52.248;20.952;2024-01-10T04:08:46;-7.80;99.90
17284;DHT22;8760;52.248;20.952;2024-01-10T04:11:13;-7.80;99.90
17284;DHT22;8760;52.248;20.952;2024-01-10T04:13:40;-7.80;99.90
17284;DHT22;8760;52.248;20.952;2024-01-10T04:16:07;-7.70;99.90
17284;DHT22;8760;52.248;20.952;2024-01-10T04:18:33;-7.70;99.90
17284;DHT22;8760;52.248;20.952;2024-01-10T04:21:00;-7.70;99.90
17284;DHT22;8760;52.248;20.952;2024-01-10T04:23:27;-7.80;99.90
17284;DHT22;8760;52.248;20.952;2024-01-10T04:25:57;-7.70;99.90
17284;DHT22;8760;52.248;20.952;2024-01-10T04:28:24;-7.80;99.90
17284;DHT22;8760;52.248;20.952;2024-01-10T04:30:51;-7.80;99.90
17284;DHT22;8760;52.248;20.952;2024-01-10T04:33:17;-7.80;99.90
17284;DHT22;8760;52.248;20.952;2024-01-10T04:35:44;-7.80;99.90
17284;DHT22;8760;52.248;20.952;2024-01-10T04:38:11;-7.80;99.90
17284;DHT22;8760;52.248;20.952;2024-01-10T04:40:38;-7.80;99.90
17284;DHT22;8760;52.248;20.952;2024-01-10T04:43:06;-7.80;99.90
17284;DHT22;8760;52.248;20.952;2024-01-10T04:45:33;-7.80;99.90
17284;DHT22;8760;52.248;20.952;2024-01-10T04:48:00;-7.80;99.90
17284;DHT22;8760;52.248;20.952;2024-01-10T04:50:26;-7.80;99.90
17284;DHT22;8760;52.248;20.952;2024-01-10T04:52:53;-7.80;99.90
17284;DHT22;8760;52.248;20.952;2024-01-10T04:55:20;-7.80;99.90
17284;DHT22;8760;52.248;20.952;2024-01-10T04:57:47;-7.80;99.90
17284;DHT22;8760;52.248;20.952;2024-01-10T05:00:15;-7.80;99.90
17284;DHT22;8760;52.248;20.952;2024-01-10T05:02:42;-7.80;99.90
17284;DHT22;8760;52.248;20.952;2024-01-10T05:05:09;-7.80;99.90
17284;DHT22;8760;52.248;20.952;2024-01-10T05:07:36;-7.80;99.90
17284;DHT22;8760;52.248;20.952;2024-01-10T05:10:03;-7.80;99.90
17284;DHT22;8760;52.248;20.952;2024-01-10T05:12:30;-7.80;99.90
17284;DHT22;8760;52.248;20.952;2024-01-10T05:14:57;-7.90;99.90
17284;DHT22;8760;52.248;20.952;2024-01-10T05:17:25;-7.80;99.90
17284;DHT22;8760;52.248;20.952;2024-01-10T05:19:52;-7.90;99.90
17284;DHT22;8760;52.248;20.952;2024-01-10T05:22:20;-7.80;99.90
17284;DHT22;8760;52.248;20.952;2024-01-10T05:24:47;-7.80;99.90
17284;DHT22;8760;52.248;20.952;2024-01-10T05:27:14;-7.90;99.90
17284;DHT22;8760;52.248;20.952;2024-01-10T05:29:41;-7.90;99.90
17284;DHT22;8760;52.248;20.952;2024-01-10T05:32:08;-7.90;99.90
17284;DHT22;8760;52.248;20.952;2024-01-10T05:34:36;-7.90;99.90
17284;DHT22;8760;52.248;20.952;2024-01-10T05:37:03;-8.00;99.90
17284;DHT22;8760;52.248;20.952;2024-01-10T05:39:30;-7.90;99.90
17284;DHT22;8760;52.248;20.952;2024-01-10T05:41:57;-8.00;99.90
17284;DHT22;8760;52.248;20.952;2024-01-10T05:44:24;-8.00;99.90
17284;DHT22;8760;52.248;20.952;2024-01-10T05:46:51;-8.00;99.90
17284;DHT22;8760;52.248;20.952;2024-01-10T05:49:18;-7.90;99.90
17284;DHT22;8760;52.248;20.952;2024-01-10T05:51:46;-7.90;99.90
17284;DHT22;8760;52.248;20.952;2024-01-10T05:54:13;-8.00;99.90
17284;DHT22;8760;52.248;20.952;2024-01-10T05:56:41;-8.00;99.90
17284;DHT22;8760;52.248;20.952;2024-01-10T05:59:07;-8.00;99.90
17284;DHT22;8760;52.248;20.952;2024-01-10T06:01:36;-8.00;99.90
17284;DHT22;8760;52.248;20.952;2024-01-10T06:04:04;-8.00;99.90
17284;DHT22;8760;52.248;20.952;2024-01-10T06:06:31;-8.00;99.90
17284;DHT22;8760;52.248;20.952;2024-01-10T06:08:59;-8.00;99.90
17284;DHT22;8760;52.248;20.952;2024-01-10T06:11:26;-8.00;99.90
17284;DHT22;8760;52.248;20.952;2024-01-10T06:13:53;-8.00;99.90
17284;DHT22;8760;52.248;20.952;2024-01-10T06:16:20;-8.00;99.90
17284;DHT22;8760;52.248;20.952;2024-01-10T06:18:47;-7.90;99.90
17284;DHT22;8760;52.248;20.952;2024-01-10T06:21:14;-7.90;99.90
17284;DHT22;8760;52.248;20.952;2024-01-10T06:23:41;-8.00;99.90
17284;DHT22;8760;52.248;20.952;2024-01-10T06:26:09;-8.10;99.90
17284;DHT22;8760;52.248;20.952;2024-01-10T06:28:36;-8.00;99.90
17284;DHT22;8760;52.248;20.952;2024-01-10T06:31:03;-8.00;99.90
17284;DHT22;8760;52.248;20.952;2024-01-10T06:33:30;-8.00;99.90
17284;DHT22;8760;52.248;20.952;2024-01-10T06:35:56;-8.00;99.90
17284;DHT22;8760;52.248;20.952;2024-01-10T06:38:24;-8.00;99.90
17284;DHT22;8760;52.248;20.952;2024-01-10T06:40:51;-8.00;99.90
17284;DHT22;8760;52.248;20.952;2024-01-10T06:43:19;-8.00;99.90
17284;DHT22;8760;52.248;20.952;2024-01-10T06:45:46;-8.00;99.90
17284;DHT22;8760;52.248;20.952;2024-01-10T06:48:13;-8.00;99.90
17284;DHT22;8760;52.248;20.952;2024-01-10T06:50:40;-8.00;99.90
17284;DHT22;8760;52.248;20.952;2024-01-10T06:53:07;-8.00;99.90
17284;DHT22;8760;52.248;20.952;2024-01-10T06:55:34;-7.90;99.90
17284;DHT22;8760;52.248;20.952;2024-01-10T06:58:01;-7.90;99.90
17284;DHT22;8760;52.248;20.952;2024-01-10T07:00:29;-7.90;99.90
17284;DHT22;8760;52.248;20.952;2024-01-10T07:02:57;-7.90;99.90
17284;DHT22;8760;52.248;20.952;2024-01-10T07:05:27;-7.80;99.90
17284;DHT22;8760;52.248;20.952;2024-01-10T07:07:54;-7.80;99.90
17284;DHT22;8760;52.248;20.952;2024-01-10T07:10:21;-7.80;99.90
17284;DHT22;8760;52.248;20.952;2024-01-10T07:12:51;-7.80;99.90
17284;DHT22;8760;52.248;20.952;2024-01-10T07:15:18;-7.90;99.90
17284;DHT22;8760;52.248;20.952;2024-01-10T07:17:46;-7.80;99.90
17284;DHT22;8760;52.248;20.952;2024-01-10T07:20:13;-7.80;99.90
17284;DHT22;8760;52.248;20.952;2024-01-10T07:22:40;-7.80;99.90
17284;DHT22;8760;52.248;20.952;2024-01-10T07:25:09;-7.70;99.90
17284;DHT22;8760;52.248;20.952;2024-01-10T07:27:39;-7.70;99.90
17284;DHT22;8760;52.248;20.952;2024-01-10T07:30:07;-7.70;99.90
17284;DHT22;8760;52.248;20.952;2024-01-10T07:32:39;-7.60;99.90
17284;DHT22;8760;52.248;20.952;2024-01-10T07:35:08;-7.60;99.90
17284;DHT22;8760;52.248;20.952;2024-01-10T07:37:36;-7.60;99.90
17284;DHT22;8760;52.248;20.952;2024-01-10T07:40:04;-7.50;99.90
17284;DHT22;8760;52.248;20.952;2024-01-10T07:42:31;-7.50;99.90
17284;DHT22;8760;52.248;20.952;2024-01-10T07:44:58;-7.40;99.90
17284;DHT22;8760;52.248;20.952;2024-01-10T07:47:25;-7.30;99.90
17284;DHT22;8760;52.248;20.952;2024-01-10T07:49:52;-7.30;99.90
17284;DHT22;8760;52.248;20.952;2024-01-10T07:52:20;-7.30;99.90
17284;DHT22;8760;52.248;20.952;2024-01-10T07:54:47;-7.30;99.90
17284;DHT22;8760;52.248;20.952;2024-01-10T07:57:14;-7.40;99.90
17284;DHT22;8760;52.248;20.952;2024-01-10T07:59:43;-7.40;99.90
17284;DHT22;8760;52.248;20.952;2024-01-10T08:02:10;-7.30;99.90
17284;DHT22;8760;52.248;20.952;2024-01-10T08:04:37;-7.20;99.90
17284;DHT22;8760;52.248;20.952;2024-01-10T08:07:04;-7.20;99.90
17284;DHT22;8760;52.248;20.952;2024-01-10T08:09:32;-7.20;99.90
17284;DHT22;8760;52.248;20.952;2024-01-10T08:11:59;-7.30;99.90
17284;DHT22;8760;52.248;20.952;2024-01-10T08:14:26;-7.30;99.90
17284;DHT22;8760;52.248;20.952;2024-01-10T08:16:53;-7.20;99.90
17284;DHT22;8760;52.248;20.952;2024-01-10T08:19:20;-7.20;99.90
17284;DHT22;8760;52.248;20.952;2024-01-10T08:21:47;-7.10;99.90
17284;DHT22;8760;52.248;20.952;2024-01-10T08:24:14;-7.10;99.90
17284;DHT22;8760;52.248;20.952;2024-01-10T08:26:42;-6.90;99.90
17284;DHT22;8760;52.248;20.952;2024-01-10T08:29:09;-6.90;99.90
17284;DHT22;8760;52.248;20.952;2024-01-10T08:31:36;-6.90;99.90
17284;DHT22;8760;52.248;20.952;2024-01-10T08:34:04;-6.90;99.90
17284;DHT22;8760;52.248;20.952;2024-01-10T08:36:31;-6.90;99.90
17284;DHT22;8760;52.248;20.952;2024-01-10T08:38:58;-6.80;99.90
17284;DHT22;8760;52.248;20.952;2024-01-10T08:41:26;-6.80;99.90
17284;DHT22;8760;52.248;20.952;2024-01-10T08:43:57;-6.70;99.90
17284;DHT22;8760;52.248;20.952;2024-01-10T08:46:24;-6.80;99.90
17284;DHT22;8760;52.248;20.952;2024-01-10T08:48:51;-6.70;99.90
17284;DHT22;8760;52.248;20.952;2024-01-10T08:51:17;-6.70;99.90
17284;DHT22;8760;52.248;20.952;2024-01-10T08:53:44;-6.60;99.90
17284;DHT22;8760;52.248;20.952;2024-01-10T08:56:11;-6.30;99.90
17284;DHT22;8760;52.248;20.952;2024-01-10T08:58:38;-5.80;99.90
17284;DHT22;8760;52.248;20.952;2024-01-10T09:01:06;-5.40;99.90
17284;DHT22;8760;52.248;20.952;2024-01-10T09:03:33;-5.10;99.90
17284;DHT22;8760;52.248;20.952;2024-01-10T09:06:00;-4.60;99.90
17284;DHT22;8760;52.248;20.952;2024-01-10T09:08:29;-4.40;99.90
17284;DHT22;8760;52.248;20.952;2024-01-10T09:10:56;-4.20;99.90
17284;DHT22;8760;52.248;20.952;2024-01-10T09:13:23;-3.70;99.90
17284;DHT22;8760;52.248;20.952;2024-01-10T09:15:50;-3.60;99.90
17284;DHT22;8760;52.248;20.952;2024-01-10T09:18:18;-3.30;99.90
17284;DHT22;8760;52.248;20.952;2024-01-10T09:20:45;-3.30;99.90
17284;DHT22;8760;52.248;20.952;2024-01-10T09:23:13;-3.30;99.90
17284;DHT22;8760;52.248;20.952;2024-01-10T09:25:41;-2.70;1.00
17284;DHT22;8760;52.248;20.952;2024-01-10T09:28:08;-2.20;1.00
17284;DHT22;8760;52.248;20.952;2024-01-10T09:30:34;-2.30;1.00
17284;DHT22;8760;52.248;20.952;2024-01-10T09:33:01;-2.20;99.90
17284;DHT22;8760;52.248;20.952;2024-01-10T09:35:30;-1.80;99.90
17284;DHT22;8760;52.248;20.952;2024-01-10T09:37:57;-1.30;99.90
17284;DHT22;8760;52.248;20.952;2024-01-10T09:40:24;-1.20;99.90
17284;DHT22;8760;52.248;20.952;2024-01-10T09:42:55;-1.40;99.90
17284;DHT22;8760;52.248;20.952;2024-01-10T09:45:22;-1.40;99.90
17284;DHT22;8760;52.248;20.952;2024-01-10T09:47:54;-1.40;99.90
17284;DHT22;8760;52.248;20.952;2024-01-10T09:50:21;-1.10;99.90
17284;DHT22;8760;52.248;20.952;2024-01-10T09:52:51;-1.00;99.90
17284;DHT22;8760;52.248;20.952;2024-01-10T09:55:22;-0.70;99.90
17284;DHT22;8760;52.248;20.952;2024-01-10T09:57:49;-0.60;99.90
17284;DHT22;8760;52.248;20.952;2024-01-10T10:00:16;-0.60;99.90
17284;DHT22;8760;52.248;20.952;2024-01-10T10:02:45;-0.60;99.90
17284;DHT22;8760;52.248;20.952;2024-01-10T10:05:14;-0.30;99.90
17284;DHT22;8760;52.248;20.952;2024-01-10T10:07:46;-0.10;99.90
17284;DHT22;8760;52.248;20.952;2024-01-10T10:10:14;0.00;99.90
17284;DHT22;8760;52.248;20.952;2024-01-10T10:12:43;-0.20;99.90
17284;DHT22;8760;52.248;20.952;2024-01-10T10:15:11;0.10;99.90
17284;DHT22;8760;52.248;20.952;2024-01-10T10:17:39;0.30;99.90
17284;DHT22;8760;52.248;20.952;2024-01-10T10:20:13;0.50;99.90
17284;DHT22;8760;52.248;20.952;2024-01-10T10:22:41;0.30;99.90
17284;DHT22;8760;52.248;20.952;2024-01-10T10:25:26;0.50;99.90
17284;DHT22;8760;52.248;20.952;2024-01-10T10:27:53;0.80;99.90
17284;DHT22;8760;52.248;20.952;2024-01-10T10:30:20;0.70;99.90
17284;DHT22;8760;52.248;20.952;2024-01-10T10:32:48;0.80;99.90
17284;DHT22;8760;52.248;20.952;2024-01-10T10:35:14;0.90;99.90
17284;DHT22;8760;52.248;20.952;2024-01-10T10:37:41;1.00;99.90
17284;DHT22;8760;52.248;20.952;2024-01-10T10:40:09;0.80;99.90
17284;DHT22;8760;52.248;20.952;2024-01-10T10:42:45;0.60;99.90
17284;DHT22;8760;52.248;20.952;2024-01-10T10:45:14;0.90;99.90
17284;DHT22;8760;52.248;20.952;2024-01-10T10:47:44;1.00;99.90
17284;DHT22;8760;52.248;20.952;2024-01-10T10:50:13;1.20;99.60
17284;DHT22;8760;52.248;20.952;2024-01-10T10:52:42;1.70;1.00
17284;DHT22;8760;52.248;20.952;2024-01-10T10:55:14;1.80;93.70
17284;DHT22;8760;52.248;20.952;2024-01-10T10:57:44;1.60;99.90
17284;DHT22;8760;52.248;20.952;2024-01-10T11:00:13;1.00;98.50
17284;DHT22;8760;52.248;20.952;2024-01-10T11:02:42;0.50;78.80
17284;DHT22;8760;52.248;20.952;2024-01-10T11:05:09;0.30;99.90
17284;DHT22;8760;52.248;20.952;2024-01-10T11:07:35;0.30;97.60
17284;DHT22;8760;52.248;20.952;2024-01-10T11:10:06;0.80;99.90
17284;DHT22;8760;52.248;20.952;2024-01-10T11:12:52;1.00;99.90
17284;DHT22;8760;52.248;20.952;2024-01-10T11:15:38;0.70;90.40
17284;DHT22;8760;52.248;20.952;2024-01-10T11:18:29;0.60;94.20
17284;DHT22;8760;52.248;20.952;2024-01-10T11:21:12;0.60;95.70
17284;DHT22;8760;52.248;20.952;2024-01-10T11:23:43;0.90;99.90
17284;DHT22;8760;52.248;20.952;2024-01-10T11:26:11;0.90;99.90
17284;DHT22;8760;52.248;20.952;2024-01-10T11:28:40;1.00;99.90
17284;DHT22;8760;52.248;20.952;2024-01-10T11:31:09;1.20;99.90
17284;DHT22;8760;52.248;20.952;2024-01-10T11:33:37;0.80;90.00
17284;DHT22;8760;52.248;20.952;2024-01-10T11:36:14;0.30;83.50
17284;DHT22;8760;52.248;20.952;2024-01-10T11:38:42;-0.30;96.70
17284;DHT22;8760;52.248;20.952;2024-01-10T11:41:19;-0.20;99.90
17284;DHT22;8760;52.248;20.952;2024-01-10T11:46:54;1.00;1.00
17284;DHT22;8760;52.248;20.952;2024-01-10T11:49:23;1.80;99.90
17284;DHT22;8760;52.248;20.952;2024-01-10T11:51:54;2.30;99.90
17284;DHT22;8760;52.248;20.952;2024-01-10T11:54:36;2.40;75.50
17284;DHT22;8760;52.248;20.952;2024-01-10T11:57:07;2.40;89.30
17284;DHT22;8760;52.248;20.952;2024-01-10T11:59:36;2.40;77.40
17284;DHT22;8760;52.248;20.952;2024-01-10T12:02:03;3.20;99.90
17284;DHT22;8760;52.248;20.952;2024-01-10T12:04:31;3.60;82.00
17284;DHT22;8760;52.248;20.952;2024-01-10T12:06:58;4.10;67.50
17284;DHT22;8760;52.248;20.952;2024-01-10T12:09:25;4.60;69.30
17284;DHT22;8760;52.248;20.952;2024-01-10T12:11:52;4.40;49.40
17284;DHT22;8760;52.248;20.952;2024-01-10T12:14:19;4.30;19.70
17284;DHT22;8760;52.248;20.952;2024-01-10T12:16:48;4.20;5.30
17284;DHT22;8760;52.248;20.952;2024-01-10T12:19:17;4.30;20.30
17284;DHT22;8760;52.248;20.952;2024-01-10T12:21:44;3.80;3.00
17284;DHT22;8760;52.248;20.952;2024-01-10T12:24:11;3.60;4.10
17284;DHT22;8760;52.248;20.952;2024-01-10T12:26:43;3.20;2.40
17284;DHT22;8760;52.248;20.952;2024-01-10T12:29:10;3.00;5.70
17284;DHT22;8760;52.248;20.952;2024-01-10T12:31:38;3.00;5.20
17284;DHT22;8760;52.248;20.952;2024-01-10T12:34:08;3.00;51.60
17284;DHT22;8760;52.248;20.952;2024-01-10T12:36:36;3.00;99.20
17284;DHT22;8760;52.248;20.952;2024-01-10T12:39:03;3.00;83.70
17284;DHT22;8760;52.248;20.952;2024-01-10T12:41:32;2.80;76.80
17284;DHT22;8760;52.248;20.952;2024-01-10T12:44:00;2.90;65.70
17284;DHT22;8760;52.248;20.952;2024-01-10T12:46:29;2.80;56.20
17284;DHT22;8760;52.248;20.952;2024-01-10T12:49:00;2.80;54.60
17284;DHT22;8760;52.248;20.952;2024-01-10T12:51:29;2.80;56.70
17284;DHT22;8760;52.248;20.952;2024-01-10T12:53:58;3.00;50.90
17284;DHT22;8760;52.248;20.952;2024-01-10T12:56:26;2.70;58.00
17284;DHT22;8760;52.248;20.952;2024-01-10T12:58:54;2.30;30.70
17284;DHT22;8760;52.248;20.952;2024-01-10T13:01:21;2.00;91.90
17284;DHT22;8760;52.248;20.952;2024-01-10T13:03:48;1.60;99.90
17284;DHT22;8760;52.248;20.952;2024-01-10T13:06:16;1.00;99.90
17284;DHT22;8760;52.248;20.952;2024-01-10T13:08:45;0.50;1.00
17284;DHT22;8760;52.248;20.952;2024-01-10T13:11:12;-0.30;50.20
17284;DHT22;8760;52.248;20.952;2024-01-10T13:13:40;-0.80;94.30
17284;DHT22;8760;52.248;20.952;2024-01-10T13:16:09;-1.20;96.00
17284;DHT22;8760;52.248;20.952;2024-01-10T13:18:36;-1.40;97.40
17284;DHT22;8760;52.248;20.952;2024-01-10T13:21:04;-1.70;99.50
17284;DHT22;8760;52.248;20.952;2024-01-10T13:23:31;-1.90;99.90
17284;DHT22;8760;52.248;20.952;2024-01-10T13:26:00;-2.10;99.90
17284;DHT22;8760;52.248;20.952;2024-01-10T13:28:28;-2.20;99.90
17284;DHT22;8760;52.248;20.952;2024-01-10T13:30:55;-2.20;99.90
17284;DHT22;8760;52.248;20.952;2024-01-10T13:33:22;-2.30;1.00
17284;DHT22;8760;52.248;20.952;2024-01-10T13:35:51;-2.30;1.00
17284;DHT22;8760;52.248;20.952;2024-01-10T13:38:18;-2.40;1.00
17284;DHT22;8760;52.248;20.952;2024-01-10T13:40:44;-2.40;1.00
17284;DHT22;8760;52.248;20.952;2024-01-10T13:43:13;-2.40;1.00
17284;DHT22;8760;52.248;20.952;2024-01-10T13:45:40;-2.50;1.00
17284;DHT22;8760;52.248;20.952;2024-01-10T13:48:07;-2.50;1.00
17284;DHT22;8760;52.248;20.952;2024-01-10T13:50:35;-2.50;1.00
17284;DHT22;8760;52.248;20.952;2024-01-10T13:53:02;-2.60;1.00
17284;DHT22;8760;52.248;20.952;2024-01-10T13:55:30;-2.70;99.90
17284;DHT22;8760;52.248;20.952;2024-01-10T13:57:57;-2.70;99.90
17284;DHT22;8760;52.248;20.952;2024-01-10T14:00:25;-2.70;99.90
17284;DHT22;8760;52.248;20.952;2024-01-10T14:02:52;-2.70;99.90
17284;DHT22;8760;52.248;20.952;2024-01-10T14:05:24;-2.70;51.90
17284;DHT22;8760;52.248;20.952;2024-01-10T14:07:51;-2.70;91.10
17284;DHT22;8760;52.248;20.952;2024-01-10T14:10:18;-2.80;99.90
17284;DHT22;8760;52.248;20.952;2024-01-10T14:12:45;-2.80;99.90
17284;DHT22;8760;52.248;20.952;2024-01-10T14:15:13;-2.90;99.90
17284;DHT22;8760;52.248;20.952;2024-01-10T14:17:41;-3.00;99.90
17284;DHT22;8760;52.248;20.952;2024-01-10T14:20:09;-3.10;1.00
17284;DHT22;8760;52.248;20.952;2024-01-10T14:22:36;-3.20;1.00
17284;DHT22;8760;52.248;20.952;2024-01-10T14:25:03;-3.30;1.00
17284;DHT22;8760;52.248;20.952;2024-01-10T14:27:31;-3.30;1.00
17284;DHT22;8760;52.248;20.952;2024-01-10T14:29:58;-3.40;1.00
17284;DHT22;8760;52.248;20.952;2024-01-10T14:32:25;-3.40;2.10
17284;DHT22;8760;52.248;20.952;2024-01-10T14:34:54;-3.50;99.90
17284;DHT22;8760;52.248;20.952;2024-01-10T14:37:20;-3.60;99.90
17284;DHT22;8760;52.248;20.952;2024-01-10T14:39:48;-3.80;1.00
17284;DHT22;8760;52.248;20.952;2024-01-10T14:42:14;-3.80;1.00
17284;DHT22;8760;52.248;20.952;2024-01-10T14:44:42;-3.80;1.00
17284;DHT22;8760;52.248;20.952;2024-01-10T14:47:10;-3.90;1.00
17284;DHT22;8760;52.248;20.952;2024-01-10T14:49:37;-3.90;99.90
17284;DHT22;8760;52.248;20.952;2024-01-10T14:52:06;-4.00;99.90
17284;DHT22;8760;52.248;20.952;2024-01-10T14:54:33;-4.10;99.90
17284;DHT22;8760;52.248;20.952;2024-01-10T14:56:59;-4.10;99.90
17284;DHT22;8760;52.248;20.952;2024-01-10T14:59:26;-4.00;99.90
17284;DHT22;8760;52.248;20.952;2024-01-10T15:01:54;-4.10;99.90
17284;DHT22;8760;52.248;20.952;2024-01-10T15:04:22;-4.20;99.90
17284;DHT22;8760;52.248;20.952;2024-01-10T15:06:49;-4.20;99.90
17284;DHT22;8760;52.248;20.952;2024-01-10T15:09:17;-4.30;99.90
17284;DHT22;8760;52.248;20.952;2024-01-10T15:11:44;-4.40;99.90
17284;DHT22;8760;52.248;20.952;2024-01-10T15:14:11;-4.40;99.90
17284;DHT22;8760;52.248;20.952;2024-01-10T15:16:38;-4.50;99.90
17284;DHT22;8760;52.248;20.952;2024-01-10T15:19:05;-4.50;99.90
17284;DHT22;8760;52.248;20.952;2024-01-10T15:21:31;-4.60;99.90
17284;DHT22;8760;52.248;20.952;2024-01-10T15:23:58;-4.60;99.90
17284;DHT22;8760;52.248;20.952;2024-01-10T15:26:27;-4.60;99.90
17284;DHT22;8760;52.248;20.952;2024-01-10T15:28:53;-4.50;99.90
17284;DHT22;8760;52.248;20.952;2024-01-10T15:31:21;-4.60;99.90
17284;DHT22;8760;52.248;20.952;2024-01-10T15:33:48;-4.60;99.90
17284;DHT22;8760;52.248;20.952;2024-01-10T15:36:15;-4.60;99.90
17284;DHT22;8760;52.248;20.952;2024-01-10T15:38:42;-4.50;99.90
17284;DHT22;8760;52.248;20.952;2024-01-10T15:41:09;-4.50;99.90
17284;DHT22;8760;52.248;20.952;2024-01-10T15:43:38;-4.50;99.90